Time;durP1;ratioP1;P1;durP2;ratioP2;P2;SDS_P1;SDS_P2;PMS_P1;PMS_P2;Temp;Humidity;BMP_temperature;BMP_pressure;BME280_temperature;BME280_humidity;BME280_pressure;Samples;Min_cycle;Max_cycle;Signal;HPM_P1;HPM_P2
2022/07/20 00:02:11;;;;;;;;;;;;;;;13.44;100.00;91560.34;4993221;28;20710;-64
2022/07/20 00:04:36;;;;;;;;;;;;;;;13.39;100.00;91565.00;4993004;28;20356;-67
2022/07/20 00:07:01;;;;;;;;;;;;;;;13.27;100.00;91567.50;4993246;28;19921;-64
2022/07/20 00:12:11;;;;;;;;;;;;;;;13.26;100.00;91558.72;4993367;28;20288;-65
2022/07/20 00:14:36;;;;;;;;;;;;;;;13.31;100.00;91566.56;4993122;28;19917;-65
2022/07/20 00:17:03;;;;;;;;;;;;;;;13.32;100.00;91564.69;4993031;28;20065;-64
2022/07/20 00:19:28;;;;;;;;;;;;;;;13.37;100.00;91559.19;4993101;28;20398;-65
2022/07/20 00:21:54;;;;;;;;;;;;;;;13.35;100.00;91551.50;4993032;28;20005;-65
2022/07/20 00:24:20;;;;;;;;;;;;;;;13.29;100.00;91551.94;4992731;28;19917;-64
2022/07/20 00:26:45;;;;;;;;;;;;;;;13.23;100.00;91558.50;4992889;28;19920;-64
2022/07/20 00:29:10;;;;;;;;;;;;;;;13.14;100.00;91556.59;4992810;28;19913;-64
2022/07/20 00:31:36;;;;;;;;;;;;;;;13.08;100.00;91551.66;4992849;28;19917;-64
2022/07/20 00:34:01;;;;;;;;;;;;;;;13.11;100.00;91551.06;4992643;28;19972;-64
2022/07/20 00:36:27;;;;;;;;;;;;;;;13.04;100.00;91548.03;4992744;28;19921;-64
2022/07/20 00:38:52;;;;;;;;;;;;;;;12.95;100.00;91547.22;4992694;28;19972;-64
2022/07/20 00:41:17;;;;;;;;;;;;;;;12.82;100.00;91546.22;4992776;28;19934;-64
2022/07/20 00:44:01;;;;;;;;;;;;;;;12.76;100.00;91553.56;4992627;28;19913;-64
2022/07/20 00:46:28;;;;;;;;;;;;;;;12.84;100.00;91542.16;4992641;28;19913;-64
2022/07/20 00:48:53;;;;;;;;;;;;;;;13.20;100.00;91538.56;4992768;28;19949;-64
2022/07/20 00:51:19;;;;;;;;;;;;;;;13.29;100.00;91546.59;4992572;28;20383;-64
2022/07/20 00:53:45;;;;;;;;;;;;;;;13.24;100.00;91547.50;4992513;28;19964;-65
2022/07/20 00:56:11;;;;;;;;;;;;;;;13.18;100.00;91540.75;4992507;28;19948;-65
2022/07/20 00:58:36;;;;;;;;;;;;;;;13.09;100.00;91550.56;4992318;28;19913;-64
2022/07/20 01:01:01;;;;;;;;;;;;;;;13.03;100.00;91544.59;4992343;28;19957;-64
2022/07/20 01:03:27;;;;;;;;;;;;;;;12.90;100.00;91540.91;4992202;28;19956;-65
2022/07/20 01:05:52;;;;;;;;;;;;;;;12.85;100.00;91542.94;4992199;28;19953;-64
2022/07/20 01:08:18;;;;;;;;;;;;;;;12.79;100.00;91544.97;4992245;28;19921;-64
2022/07/20 01:10:43;;;;;;;;;;;;;;;12.81;100.00;91542.75;4992210;28;20063;-64
2022/07/20 01:13:11;;;;;;;;;;;;;;;12.78;100.00;91546.06;4992047;28;19933;-64
2022/07/20 01:15:36;;;;;;;;;;;;;;;12.71;100.00;91543.00;4992317;28;19914;-65
2022/07/20 01:18:01;;;;;;;;;;;;;;;12.70;100.00;91548.66;4992201;28;20346;-64
2022/07/20 01:20:29;;;;;;;;;;;;;;;12.68;100.00;91537.50;4992391;28;19913;-64
2022/07/20 01:22:54;;;;;;;;;;;;;;;12.62;100.00;91547.50;4992116;28;19917;-64
2022/07/20 01:25:20;;;;;;;;;;;;;;;12.48;100.00;91542.25;4992162;28;19924;-64
2022/07/20 01:27:45;;;;;;;;;;;;;;;12.30;100.00;91541.34;4992471;28;19920;-64
2022/07/20 01:30:11;;;;;;;;;;;;;;;12.24;100.00;91547.09;4992143;28;19967;-64
2022/07/20 01:32:36;;;;;;;;;;;;;;;12.19;100.00;91547.25;4992060;28;19913;-64
2022/07/20 01:35:01;;;;;;;;;;;;;;;12.13;100.00;91537.75;4992114;28;20412;-64
2022/07/20 01:37:30;;;;;;;;;;;;;;;12.03;100.00;91541.47;4992024;28;19952;-64
2022/07/20 01:39:56;;;;;;;;;;;;;;;11.98;100.00;91545.03;4976716;28;20328;-65
2022/07/20 01:42:21;;;;;;;;;;;;;;;11.99;100.00;91543.13;4972684;28;19914;-64
2022/07/20 01:44:46;;;;;;;;;;;;;;;12.04;100.00;91537.72;4972606;28;19914;-64
2022/07/20 01:47:12;;;;;;;;;;;;;;;11.99;100.00;91537.81;4972518;28;19950;-64
2022/07/20 01:49:37;;;;;;;;;;;;;;;11.95;100.00;91531.50;4972578;28;19914;-65
2022/07/20 01:52:03;;;;;;;;;;;;;;;11.93;100.00;91537.16;4972377;28;19918;-65
2022/07/20 01:54:28;;;;;;;;;;;;;;;11.94;100.00;91537.94;4972480;28;19957;-64
2022/07/20 01:56:53;;;;;;;;;;;;;;;11.95;100.00;91529.63;4972446;28;19922;-64
2022/07/20 01:59:18;;;;;;;;;;;;;;;12.03;100.00;91533.47;4972546;28;19925;-64
2022/07/20 02:01:44;;;;;;;;;;;;;;;11.98;100.00;91530.91;4972498;28;19914;-64
2022/07/20 02:04:09;;;;;;;;;;;;;;;11.91;100.00;91530.53;4974550;28;19973;-64
2022/07/20 02:06:34;;;;;;;;;;;;;;;11.79;100.00;91528.41;4994042;28;19922;-64
2022/07/20 02:09:00;;;;;;;;;;;;;;;11.77;100.00;91535.09;4995491;28;20017;-64
2022/07/20 02:11:25;;;;;;;;;;;;;;;11.72;100.00;91528.00;4995430;28;20293;-65
2022/07/20 02:13:51;;;;;;;;;;;;;;;11.77;100.00;91535.09;4995561;28;19917;-65
2022/07/20 02:16:16;;;;;;;;;;;;;;;11.78;100.00;91534.00;4995376;28;20396;-65
2022/07/20 02:18:45;;;;;;;;;;;;;;;11.81;100.00;91530.75;4995331;28;20394;-65
2022/07/20 02:21:10;;;;;;;;;;;;;;;11.81;100.00;91530.75;4995467;28;19921;-65
2022/07/20 02:23:36;;;;;;;;;;;;;;;11.75;100.00;91534.59;4995135;28;19917;-65
2022/07/20 02:26:01;;;;;;;;;;;;;;;11.59;100.00;91539.47;4995129;28;20311;-65
2022/07/20 02:28:26;;;;;;;;;;;;;;;11.48;100.00;91536.22;4995109;28;19975;-65
2022/07/20 02:30:52;;;;;;;;;;;;;;;11.39;100.00;91533.50;4994989;28;19924;-65
2022/07/20 02:33:17;;;;;;;;;;;;;;;11.28;100.00;91534.78;4994893;28;20362;-65
2022/07/20 02:35:43;;;;;;;;;;;;;;;11.24;100.00;91538.34;4994988;28;19922;-65
2022/07/20 02:38:08;;;;;;;;;;;;;;;11.21;100.00;91538.94;4977380;28;19928;-65
2022/07/20 02:40:33;;;;;;;;;;;;;;;11.15;100.00;91540.91;4994798;28;19921;-64
2022/07/20 02:42:58;;;;;;;;;;;;;;;11.12;100.00;91541.50;4994734;28;19921;-65
2022/07/20 02:45:24;;;;;;;;;;;;;;;11.12;100.00;91543.38;4994804;28;20008;-65
2022/07/20 02:47:49;;;;;;;;;;;;;;;11.16;100.00;91539.81;4994801;28;20442;-65
2022/07/20 02:50:15;;;;;;;;;;;;;;;11.12;100.00;91552.16;4994608;28;19921;-65
2022/07/20 02:52:41;;;;;;;;;;;;;;;11.14;100.00;91536.66;4994614;28;19925;-64
2022/07/20 02:55:06;;;;;;;;;;;;;;;11.13;100.00;91536.97;4994580;28;19918;-64
2022/07/20 02:57:32;;;;;;;;;;;;;;;11.11;100.00;91539.91;4994522;28;19918;-64
2022/07/20 02:59:57;;;;;;;;;;;;;;;11.03;100.00;91541.38;4994883;28;20008;-64
2022/07/20 03:02:23;;;;;;;;;;;;;;;11.04;100.00;91550.16;4994482;28;19918;-65
2022/07/20 03:04:48;;;;;;;;;;;;;;;11.03;100.00;91549.38;4991370;28;19929;-65
2022/07/20 03:07:13;;;;;;;;;;;;;;;11.05;100.00;91549.09;4994433;28;19922;-65
2022/07/20 03:09:39;;;;;;;;;;;;;;;11.02;100.00;91547.78;4994403;28;19922;-65
2022/07/20 03:12:04;;;;;;;;;;;;;;;10.98;100.00;91551.34;4994237;28;19918;-64
2022/07/20 03:14:29;;;;;;;;;;;;;;;11.01;100.00;91551.53;4993388;28;19922;-65
2022/07/20 03:16:55;;;;;;;;;;;;;;;11.00;100.00;91546.53;4993955;28;19941;-65
2022/07/20 03:19:21;;;;;;;;;;;;;;;11.00;100.00;91544.66;4994184;28;20384;-64
2022/07/20 03:21:46;;;;;;;;;;;;;;;11.06;100.00;91545.34;4994162;28;19922;-65
2022/07/20 03:24:11;;;;;;;;;;;;;;;11.08;100.00;91557.28;4994068;28;19969;-64
2022/07/20 03:26:37;;;;;;;;;;;;;;;11.13;100.00;91539.63;5152969;23;19921;-65
2022/07/20 03:29:02;;;;;;;;;;;;;;;11.20;100.00;91550.66;5012844;28;20019;-65
2022/07/20 03:31:27;;;;;;;;;;;;;;;11.25;100.00;91540.72;5013483;28;19917;-65
2022/07/20 03:33:53;;;;;;;;;;;;;;;11.28;100.00;91544.66;5013376;28;19922;-65
2022/07/20 03:36:18;;;;;;;;;;;;;;;11.34;100.00;91548.78;5013014;28;20047;-65
2022/07/20 03:38:43;;;;;;;;;;;;;;;11.36;100.00;91549.25;4995606;28;20314;-65
2022/07/20 03:41:08;;;;;;;;;;;;;;;11.39;100.00;91551.34;5013292;28;19917;-65
2022/07/20 03:43:34;;;;;;;;;;;;;;;11.47;100.00;91550.63;5013173;28;20385;-65
2022/07/20 03:45:59;;;;;;;;;;;;;;;11.53;100.00;91554.78;5013123;28;19914;-65
2022/07/20 03:48:24;;;;;;;;;;;;;;;11.59;100.00;91550.94;5013206;28;19914;-63
2022/07/20 03:50:50;;;;;;;;;;;;;;;11.62;100.00;91550.31;5013202;28;19913;-65
2022/07/20 03:53:15;;;;;;;;;;;;;;;11.71;100.00;91563.75;5013126;28;19914;-65
2022/07/20 03:55:40;;;;;;;;;;;;;;;11.72;100.00;91549.31;5012952;28;19920;-65
2022/07/20 03:58:06;;;;;;;;;;;;;;;11.76;100.00;91552.97;5013051;28;20012;-65
2022/07/20 04:00:31;;;;;;;;;;;;;;;11.82;100.00;91562.44;5013090;28;19956;-65
2022/07/20 04:02:56;;;;;;;;;;;;;;;11.92;100.00;91556.09;5013161;28;19963;-65
2022/07/20 04:05:22;;;;;;;;;;;;;;;12.01;100.00;91551.66;5012806;28;20361;-66
2022/07/20 04:07:47;;;;;;;;;;;;;;;12.12;100.00;91552.19;5012762;28;20379;-67
2022/07/20 04:10:13;;;;;;;;;;;;;;;12.22;100.00;91563.41;5012725;28;19917;-67
2022/07/20 04:12:38;;;;;;;;;;;;;;;12.36;100.00;91568.72;5012612;28;20422;-67
2022/07/20 04:15:04;;;;;;;;;;;;;;;12.54;100.00;91561.59;5012519;28;19921;-67
2022/07/20 04:17:29;;;;;;;;;;;;;;;12.64;100.00;91553.34;5012542;28;19913;-67
2022/07/20 04:19:55;;;;;;;;;;;;;;;12.72;100.00;91560.59;5012519;28;19920;-67
2022/07/20 04:22:21;;;;;;;;;;;;;;;12.84;100.00;91554.72;5012663;28;19921;-68
2022/07/20 04:24:46;;;;;;;;;;;;;;;12.96;100.00;91560.28;4994703;28;19913;-68
2022/07/20 04:27:11;;;;;;;;;;;;;;;13.10;100.00;91560.97;5011879;28;19917;-68
2022/07/20 04:29:37;;;;;;;;;;;;;;;13.19;100.00;91563.69;5012341;28;19977;-68
2022/07/20 04:32:02;;;;;;;;;;;;;;;13.31;100.00;91561.22;5012297;28;19949;-68
2022/07/20 04:34:27;;;;;;;;;;;;;;;13.48;100.00;91560.50;5012730;28;19920;-67
2022/07/20 04:36:54;;;;;;;;;;;;;;;13.66;100.00;91564.00;5012121;28;19921;-67
2022/07/20 04:39:19;;;;;;;;;;;;;;;13.81;100.00;91568.91;5012269;28;20395;-67
2022/07/20 04:41:45;;;;;;;;;;;;;;;13.99;100.00;91573.19;5012243;28;19919;-67
2022/07/20 04:44:10;;;;;;;;;;;;;;;14.19;100.00;91576.34;5012260;28;20387;-67
2022/07/20 04:46:35;;;;;;;;;;;;;;;14.36;100.00;91573.69;5012089;28;20414;-68
2022/07/20 04:49:01;;;;;;;;;;;;;;;14.49;100.00;91571.97;5012184;28;19920;-68
2022/07/20 04:51:26;;;;;;;;;;;;;;;14.64;100.00;91577.63;5012094;28;20359;-68
2022/07/20 04:53:52;;;;;;;;;;;;;;;14.74;100.00;91579.19;5012047;28;19921;-67
2022/07/20 04:56:18;;;;;;;;;;;;;;;14.84;100.00;91583.44;5011963;28;20379;-67
2022/07/20 04:58:44;;;;;;;;;;;;;;;14.97;100.00;91582.44;5011916;28;19936;-67
2022/07/20 05:01:09;;;;;;;;;;;;;;;15.08;100.00;91582.91;5011973;28;19913;-67
2022/07/20 05:03:35;;;;;;;;;;;;;;;15.19;100.00;91584.16;5011997;28;20326;-68
2022/07/20 05:06:00;;;;;;;;;;;;;;;15.32;100.00;91585.84;5011777;28;19913;-67
2022/07/20 05:08:26;;;;;;;;;;;;;;;15.45;100.00;91592.88;5011899;28;19913;-68
2022/07/20 05:10:51;;;;;;;;;;;;;;;15.64;100.00;91589.06;5011804;28;19918;-68
2022/07/20 05:13:16;;;;;;;;;;;;;;;15.81;100.00;91581.72;5011804;28;20310;-68
2022/07/20 05:15:41;;;;;;;;;;;;;;;16.01;99.04;91576.69;5011642;28;19914;-67
2022/07/20 05:18:07;;;;;;;;;;;;;;;16.20;96.22;91582.41;5011629;28;19920;-68
2022/07/20 05:20:32;;;;;;;;;;;;;;;16.31;94.10;91578.22;5011800;28;19921;-68
2022/07/20 05:22:58;;;;;;;;;;;;;;;16.58;92.77;91582.28;5011722;28;19913;-70
2022/07/20 05:25:23;;;;;;;;;;;;;;;16.78;92.76;91583.41;5011523;28;19976;-68
2022/07/20 05:27:48;;;;;;;;;;;;;;;17.00;92.21;91584.94;5011643;28;19917;-68
2022/07/20 05:30:14;;;;;;;;;;;;;;;17.15;88.48;91583.53;5011487;28;20362;-67
2022/07/20 05:32:39;;;;;;;;;;;;;;;17.41;88.30;91592.09;5011573;28;19913;-67
2022/07/20 05:35:05;;;;;;;;;;;;;;;17.58;86.70;91589.22;5011419;28;20025;-68
2022/07/20 05:37:31;;;;;;;;;;;;;;;17.72;85.10;91586.22;5011240;28;19918;-67
2022/07/20 05:39:56;;;;;;;;;;;;;;;19.01;82.03;91593.56;5015244;28;19943;-67
2022/07/20 05:42:21;;;;;;;;;;;;;;;23.16;63.31;91588.75;5015547;28;19970;-67
2022/07/20 05:44:47;;;;;;;;;;;;;;;25.61;52.47;91592.63;5015373;28;20004;-67
2022/07/20 05:47:12;;;;;;;;;;;;;;;28.14;46.58;91600.50;5015484;28;20205;-68
2022/07/20 05:49:37;;;;;;;;;;;;;;;30.32;41.41;91591.63;5015303;28;19920;-68
2022/07/20 05:52:03;;;;;;;;;;;;;;;31.56;38.80;91594.22;5015346;28;19971;-68
2022/07/20 05:54:29;;;;;;;;;;;;;;;31.68;37.73;91592.81;5015243;28;19917;-68
2022/07/20 05:56:54;;;;;;;;;;;;;;;32.75;36.36;91594.81;5015252;28;19920;-68
2022/07/20 05:59:19;;;;;;;;;;;;;;;32.22;37.09;91596.03;5015145;28;19913;-68
2022/07/20 06:01:45;;;;;;;;;;;;;;;31.41;37.61;91595.72;5015112;28;19914;-68
2022/07/20 06:04:11;;;;;;;;;;;;;;;30.32;38.88;91588.88;5015107;28;20388;-69
2022/07/20 06:06:36;;;;;;;;;;;;;;;32.60;37.08;91592.84;5014954;28;20000;-68
2022/07/20 06:09:02;;;;;;;;;;;;;;;32.47;36.50;91589.97;5015022;28;19919;-68
2022/07/20 06:11:27;;;;;;;;;;;;;;;32.29;36.54;91587.63;5014949;28;19913;-68
2022/07/20 06:13:53;;;;;;;;;;;;;;;31.81;37.33;91589.03;5014976;28;20028;-67
2022/07/20 06:16:18;;;;;;;;;;;;;;;32.51;36.06;91598.94;5014928;28;19917;-68
2022/07/20 06:18:43;;;;;;;;;;;;;;;35.31;34.06;91588.69;5014900;28;19971;-68
2022/07/20 06:21:09;;;;;;;;;;;;;;;36.16;32.26;91594.00;4997371;28;20028;-68
2022/07/20 06:23:34;;;;;;;;;;;;;;;37.66;31.02;91597.16;5015328;28;20405;-68
2022/07/20 06:26:00;;;;;;;;;;;;;;;38.08;31.26;91599.34;5014876;28;19954;-68
2022/07/20 06:28:25;;;;;;;;;;;;;;;37.56;31.03;91601.19;5014767;28;20237;-68
2022/07/20 06:30:50;;;;;;;;;;;;;;;37.47;30.51;91601.16;5014582;28;19921;-68
2022/07/20 06:33:16;;;;;;;;;;;;;;;34.47;33.56;91596.53;5014630;28;19914;-68
2022/07/20 06:35:41;;;;;;;;;;;;;;;34.06;34.89;91589.81;5014486;28;19994;-68
2022/07/20 06:38:06;;;;;;;;;;;;;;;33.76;34.95;91599.31;5014487;28;20359;-68
2022/07/20 06:40:32;;;;;;;;;;;;;;;33.55;35.15;91597.16;5014574;28;19913;-68
2022/07/20 06:42:57;;;;;;;;;;;;;;;33.80;35.70;91594.50;5014415;28;19920;-68
2022/07/20 06:45:22;;;;;;;;;;;;;;;34.78;34.33;91591.22;5014417;28;19917;-68
2022/07/20 06:47:49;;;;;;;;;;;;;;;34.72;33.58;91591.00;5014427;28;19913;-67
2022/07/20 06:50:14;;;;;;;;;;;;;;;35.18;33.05;91588.72;5014132;28;19956;-68
2022/07/20 06:52:40;;;;;;;;;;;;;;;33.60;34.24;91602.13;5014285;28;19913;-67
2022/07/20 06:55:05;;;;;;;;;;;;;;;35.04;31.74;91595.53;5014171;28;19913;-68
2022/07/20 06:57:31;;;;;;;;;;;;;;;36.29;28.46;91586.41;5014201;28;19913;-67
2022/07/20 06:59:56;;;;;;;;;;;;;;;35.58;29.78;91596.50;5014304;28;19913;-67
2022/07/20 07:02:22;;;;;;;;;;;;;;;36.06;26.31;91597.94;5014207;28;19913;-67
2022/07/20 07:04:48;;;;;;;;;;;;;;;34.74;27.61;91587.78;5014239;28;19945;-68
2022/07/20 07:07:13;;;;;;;;;;;;;;;36.94;26.13;91593.03;5014113;28;19918;-68
2022/07/20 07:09:38;;;;;;;;;;;;;;;37.70;26.08;91589.44;5014082;28;19924;-68
2022/07/20 07:12:04;;;;;;;;;;;;;;;37.89;25.57;91592.25;5014052;28;19917;-68
2022/07/20 07:14:29;;;;;;;;;;;;;;;38.00;25.09;91592.53;5013882;28;19920;-68
2022/07/20 07:16:54;;;;;;;;;;;;;;;37.89;25.12;91592.25;5013824;28;19963;-68
2022/07/20 07:19:20;;;;;;;;;;;;;;;35.22;26.67;91586.63;5013846;28;20390;-68
2022/07/20 07:21:45;;;;;;;;;;;;;;;34.09;26.98;91593.72;5013759;28;19913;-68
2022/07/20 07:24:10;;;;;;;;;;;;;;;34.54;26.97;91593.53;5013750;28;19913;-67
2022/07/20 07:26:36;;;;;;;;;;;;;;;34.07;27.91;91590.59;5013464;28;19917;-68
2022/07/20 07:29:01;;;;;;;;;;;;;;;35.98;27.40;91589.13;5013582;28;19914;-67
2022/07/20 07:31:27;;;;;;;;;;;;;;;36.39;24.83;91589.22;5013508;28;19920;-67
2022/07/20 07:33:52;;;;;;;;;;;;;;;35.23;25.53;91585.41;5013486;28;19913;-66
2022/07/20 07:36:17;;;;;;;;;;;;;;;34.93;27.20;91572.97;5013315;28;19921;-66
2022/07/20 07:38:43;;;;;;;;;;;;;;;35.53;27.21;91577.69;5013381;28;20020;-66
2022/07/20 07:41:08;;;;;;;;;;;;;;;37.71;24.39;91585.41;5013342;28;20008;-67
2022/07/20 07:43:33;;;;;;;;;;;;;;;38.93;23.59;91589.06;5013339;28;19921;-66
2022/07/20 07:45:59;;;;;;;;;;;;;;;37.13;24.27;91591.84;5013186;28;19924;-66
2022/07/20 07:48:24;;;;;;;;;;;;;;;37.84;25.07;91590.09;5013244;28;20398;-66
2022/07/20 07:50:49;;;;;;;;;;;;;;;36.38;24.69;91582.91;5013394;28;20371;-66
2022/07/20 07:53:15;;;;;;;;;;;;;;;34.96;26.22;91580.38;5013204;28;20438;-66
2022/07/20 07:55:40;;;;;;;;;;;;;;;34.26;26.83;91578.59;5013036;28;19913;-67
2022/07/20 07:58:07;;;;;;;;;;;;;;;34.26;27.04;91578.59;5012931;28;19913;-66
2022/07/20 08:00:33;;;;;;;;;;;;;;;35.01;26.71;91581.78;5012523;28;19971;-65
2022/07/20 08:02:58;;;;;;;;;;;;;;;37.30;24.88;91580.47;5012723;28;20383;-66
2022/07/20 08:05:23;;;;;;;;;;;;;;;38.88;25.12;91584.94;5012843;28;19924;-66
2022/07/20 08:07:49;;;;;;;;;;;;;;;38.61;23.69;91585.78;5012941;28;19917;-66
2022/07/20 08:10:14;;;;;;;;;;;;;;;37.43;24.62;91583.91;5012873;28;20311;-65
2022/07/20 08:12:40;;;;;;;;;;;;;;;37.62;25.15;91579.13;5012984;28;19917;-66
2022/07/20 08:15:05;;;;;;;;;;;;;;;38.50;23.78;91584.72;5012545;28;20386;-66
2022/07/20 08:17:31;;;;;;;;;;;;;;;39.23;25.01;91590.03;5012615;28;19913;-66
2022/07/20 08:19:56;;;;;;;;;;;;;;;37.32;26.17;91594.66;5012720;28;19913;-66
2022/07/20 08:22:22;;;;;;;;;;;;;;;36.74;25.76;91582.28;5012635;28;20429;-66
2022/07/20 08:24:47;;;;;;;;;;;;;;;37.89;24.37;91587.47;5012366;28;19913;-67
2022/07/20 08:27:12;;;;;;;;;;;;;;;38.40;24.12;91586.00;5012611;28;20354;-66
2022/07/20 08:29:38;;;;;;;;;;;;;;;37.01;25.18;91578.84;5012395;28;19915;-65
2022/07/20 08:32:03;;;;;;;;;;;;;;;36.32;26.18;91581.16;5012693;28;19988;-66
2022/07/20 08:34:29;;;;;;;;;;;;;;;36.80;26.32;91583.28;5012642;28;19929;-67
2022/07/20 08:36:54;;;;;;;;;;;;;;;37.41;25.86;91586.38;5012409;28;20322;-67
2022/07/20 08:39:19;;;;;;;;;;;;;;;37.55;25.04;91580.19;5012378;28;19964;-66
2022/07/20 08:41:45;;;;;;;;;;;;;;;37.28;25.67;91572.63;5012307;28;19913;-66
2022/07/20 08:44:11;;;;;;;;;;;;;;;39.30;24.60;91581.34;5012249;28;19914;-67
2022/07/20 08:46:36;;;;;;;;;;;;;;;38.74;24.28;91570.94;5012388;28;19914;-66
2022/07/20 08:49:02;;;;;;;;;;;;;;;39.37;23.46;91577.41;5012515;28;20395;-67
2022/07/20 08:51:27;;;;;;;;;;;;;;;39.34;24.05;91573.56;5012365;28;20370;-67
2022/07/20 08:53:54;;;;;;;;;;;;;;;38.34;24.30;91572.72;5011955;28;19917;-68
2022/07/20 08:56:19;;;;;;;;;;;;;;;37.78;25.87;91578.06;5011986;28;20380;-68
2022/07/20 08:58:44;;;;;;;;;;;;;;;35.84;27.07;91564.72;5011783;28;20054;-70
2022/07/20 09:01:14;;;;;;;;;;;;;;;34.77;27.50;91568.31;5011947;28;19956;-71
2022/07/20 09:03:41;;;;;;;;;;;;;;;35.82;27.06;91561.63;5012010;28;19917;-68
2022/07/20 09:06:07;;;;;;;;;;;;;;;34.96;28.86;91560.25;5011835;28;19913;-69
2022/07/20 09:08:32;;;;;;;;;;;;;;;36.84;26.50;91558.16;5011909;28;19913;-69
2022/07/20 09:11:02;;;;;;;;;;;;;;;37.78;26.64;91564.94;5011920;28;19921;-69
2022/07/20 09:13:31;;;;;;;;;;;;;;;36.98;26.14;91559.59;5012056;28;20006;-69
2022/07/20 09:15:57;;;;;;;;;;;;;;;34.62;28.08;91555.41;5011815;28;19913;-69
2022/07/20 09:18:24;;;;;;;;;;;;;;;34.37;29.24;91556.94;5011784;28;20024;-69
2022/07/20 09:20:57;;;;;;;;;;;;;;;35.72;27.60;91563.53;5011699;28;20395;-69
2022/07/20 09:23:24;;;;;;;;;;;;;;;36.92;26.01;91567.72;5011966;28;19913;-69
2022/07/20 09:25:57;;;;;;;;;;;;;;;38.11;25.81;91569.84;5011495;28;19952;-69
2022/07/20 09:28:33;;;;;;;;;;;;;;;36.49;26.51;91555.56;5012011;28;20030;-68
2022/07/20 09:30:58;;;;;;;;;;;;;;;35.88;26.96;91562.59;5011639;28;20004;-69
2022/07/20 09:33:27;;;;;;;;;;;;;;;35.52;28.63;91560.31;5011757;28;19957;-69
2022/07/20 09:35:53;;;;;;;;;;;;;;;35.45;26.95;91562.56;4993871;28;19921;-69
2022/07/20 09:38:18;;;;;;;;;;;;;;;34.64;26.89;91553.75;5011607;28;19913;-68
2022/07/20 09:40:45;;;;;;;;;;;;;;;36.00;27.16;91549.91;4993676;28;20312;-68
2022/07/20 09:43:27;;;;;;;;;;;;;;;36.86;25.77;91547.38;5011502;28;19913;-67
2022/07/20 09:45:55;;;;;;;;;;;;;;;36.34;27.91;91546.25;5011567;28;19913;-67
2022/07/20 09:48:24;;;;;;;;;;;;;;;37.95;25.98;91552.25;5011570;28;19913;-68
2022/07/20 09:50:50;;;;;;;;;;;;;;;37.56;26.32;91553.97;5011722;28;19917;-68
2022/07/20 09:53:15;;;;;;;;;;;;;;;37.94;24.94;91558.28;5011426;28;20295;-68
2022/07/20 09:55:41;;;;;;;;;;;;;;;36.85;26.34;91554.94;5011306;28;20318;-67
2022/07/20 09:58:07;;;;;;;;;;;;;;;36.42;26.95;91546.72;5011342;28;19914;-67
2022/07/20 10:00:33;;;;;;;;;;;;;;;36.81;26.82;91545.22;5011569;28;19971;-67
2022/07/20 10:02:59;;;;;;;;;;;;;;;37.71;26.63;91554.09;5011860;28;19917;-71
2022/07/20 10:05:27;;;;;;;;;;;;;;;38.24;24.24;91557.34;5011602;28;19925;-68
2022/07/20 10:07:53;;;;;;;;;;;;;;;36.03;25.73;91549.00;5011400;28;19913;-68
2022/07/20 10:10:18;;;;;;;;;;;;;;;36.68;25.82;91544.53;5011283;28;19925;-67
2022/07/20 10:12:44;;;;;;;;;;;;;;;37.15;26.23;91544.19;5011300;28;19921;-68
2022/07/20 10:15:14;;;;;;;;;;;;;;;36.24;27.17;91542.63;5011193;28;20366;-67
2022/07/20 10:17:41;;;;;;;;;;;;;;;37.69;25.90;91537.91;5011268;28;19917;-68
2022/07/20 10:20:07;;;;;;;;;;;;;;;36.56;25.99;91538.63;5011258;28;19914;-67
2022/07/20 10:22:32;;;;;;;;;;;;;;;35.50;27.26;91534.28;5011215;28;20372;-67
2022/07/20 10:25:17;;;;;;;;;;;;;;;36.15;27.88;91527.97;5012760;28;19920;-68
2022/07/20 10:27:43;;;;;;;;;;;;;;;37.82;26.49;91531.44;5014849;28;19952;-68
2022/07/20 10:30:18;;;;;;;;;;;;;;;36.60;27.33;91525.38;5014468;28;19953;-67
2022/07/20 10:32:57;;;;;;;;;;;;;;;36.50;27.00;91521.06;5014733;28;20406;-68
2022/07/20 10:35:27;;;;;;;;;;;;;;;36.32;27.79;91518.22;5014538;28;19913;-68
2022/07/20 10:37:52;;;;;;;;;;;;;;;37.05;26.31;91526.75;5014534;28;19945;-68
2022/07/20 10:40:19;;;;;;;;;;;;;;;35.46;26.84;91501.22;5014576;28;19917;-67
2022/07/20 10:42:48;;;;;;;;;;;;;;;36.33;26.04;91517.00;5014551;28;19922;-67
2022/07/20 10:45:13;;;;;;;;;;;;;;;36.46;27.14;91512.13;5010815;28;19950;-68
2022/07/20 10:47:39;;;;;;;;;;;;;;;35.31;26.82;91508.44;4993747;28;19961;-68
2022/07/20 10:50:05;;;;;;;;;;;;;;;34.76;28.05;91505.97;4994627;28;20000;-68
2022/07/20 10:52:31;;;;;;;;;;;;;;;37.08;26.82;91500.09;4994641;28;19913;-68
2022/07/20 10:54:57;;;;;;;;;;;;;;;37.47;24.49;91498.44;4994069;28;19957;-69
2022/07/20 10:57:24;;;;;;;;;;;;;;;37.11;25.92;91497.19;4994544;28;19914;-70
2022/07/20 11:00:08;;;;;;;;;;;;;;;35.11;27.86;91495.69;4994527;28;20399;-69
2022/07/20 11:02:34;;;;;;;;;;;;;;;35.52;26.83;91495.91;4994657;28;19921;-68
2022/07/20 11:05:00;;;;;;;;;;;;;;;34.32;28.44;91490.41;4994328;28;20315;-67
2022/07/20 11:07:33;;;;;;;;;;;;;;;34.95;27.52;91486.81;4994580;28;19969;-68
2022/07/20 11:09:59;;;;;;;;;;;;;;;36.40;27.21;91488.22;4993984;28;19914;-67
2022/07/20 11:12:26;;;;;;;;;;;;;;;35.15;27.51;91476.22;4993832;28;20253;-68
2022/07/20 11:14:52;;;;;;;;;;;;;;;35.50;27.91;91481.72;4994267;28;19918;-66
2022/07/20 11:17:17;;;;;;;;;;;;;;;35.47;26.46;91475.09;4994387;28;19961;-66
2022/07/20 11:19:42;;;;;;;;;;;;;;;36.29;26.97;91472.78;4994157;28;20004;-66
2022/07/20 11:22:08;;;;;;;;;;;;;;;36.10;26.88;91475.91;4993305;28;20387;-66
2022/07/20 11:24:34;;;;;;;;;;;;;;;37.25;26.71;91472.84;4993671;28;19964;-66
2022/07/20 11:27:12;;;;;;;;;;;;;;;36.43;26.44;91477.00;4993740;28;19921;-66
2022/07/20 11:29:45;;;;;;;;;;;;;;;36.37;26.75;91476.06;4994165;28;19913;-66
2022/07/20 11:32:10;;;;;;;;;;;;;;;36.18;26.79;91483.50;4993799;28;20331;-67
2022/07/20 11:35:02;;;;;;;;;;;;;;;37.09;25.42;91476.69;4993696;28;19913;-67
2022/07/20 11:37:27;;;;;;;;;;;;;;;36.74;25.90;91481.69;4988925;28;19914;-67
2022/07/20 11:39:53;;;;;;;;;;;;;;;38.25;25.17;91466.38;4993199;28;19984;-68
2022/07/20 11:42:18;;;;;;;;;;;;;;;38.23;24.24;91475.19;4993723;28;19917;-67
2022/07/20 11:45:01;;;;;;;;;;;;;;;36.46;25.72;91467.78;4993580;28;19968;-67
2022/07/20 11:47:27;;;;;;;;;;;;;;;36.59;26.17;91473.94;4993680;28;19929;-67
2022/07/20 11:50:12;;;;;;;;;;;;;;;36.59;25.92;91462.09;4993537;28;19918;-67
2022/07/20 11:52:39;;;;;;;;;;;;;;;36.25;27.04;91474.13;4992717;28;19913;-67
2022/07/20 11:55:04;;;;;;;;;;;;;;;37.07;26.40;91468.03;4992889;28;19961;-67
2022/07/20 11:57:30;;;;;;;;;;;;;;;37.61;26.11;91469.28;4993245;28;19961;-68
2022/07/20 11:59:55;;;;;;;;;;;;;;;38.08;25.23;91465.94;4993202;28;19968;-66
2022/07/20 12:02:20;;;;;;;;;;;;;;;35.38;27.58;91464.75;4993283;28;19914;-66
2022/07/20 12:04:46;;;;;;;;;;;;;;;37.05;25.75;91462.94;4992961;28;19949;-67
2022/07/20 12:09:57;;;;;;;;;;;;;;;37.79;25.16;91465.72;4992629;28;19941;-71
2022/07/20 12:12:44;;;;;;;;;;;;;;;37.10;25.36;91454.03;4976071;28;20362;-71
2022/07/20 12:15:10;;;;;;;;;;;;;;;36.44;26.33;91461.91;4992983;28;19924;-73
2022/07/20 12:17:45;;;;;;;;;;;;;;;37.11;24.66;91458.34;4992932;28;19914;-69
2022/07/20 12:20:10;;;;;;;;;;;;;;;36.56;24.98;91455.47;4992860;28;20000;-69
2022/07/20 12:22:36;;;;;;;;;;;;;;;36.76;25.43;91460.59;4992852;28;20442;-69
2022/07/20 12:25:01;;;;;;;;;;;;;;;36.85;25.11;91451.53;4991937;28;19972;-69
2022/07/20 12:27:30;;;;;;;;;;;;;;;36.76;26.77;91449.50;4992748;28;19929;-67
2022/07/20 12:29:56;;;;;;;;;;;;;;;35.72;28.12;91438.94;4992614;28;19921;-69
2022/07/20 12:32:32;;;;;;;;;;;;;;;36.35;27.25;91436.19;4993082;28;19914;-68
2022/07/20 12:34:58;;;;;;;;;;;;;;;35.61;27.61;91435.81;4992474;28;19913;-69
2022/07/20 12:37:23;;;;;;;;;;;;;;;34.41;28.71;91441.59;4992502;28;20277;-69
2022/07/20 12:39:53;;;;;;;;;;;;;;;33.81;29.40;91426.91;4992190;28;19918;-69
2022/07/20 12:42:27;;;;;;;;;;;;;;;34.24;28.64;91426.31;4992271;28;19918;-69
2022/07/20 12:44:59;;;;;;;;;;;;;;;32.98;29.28;91416.66;4992173;28;19998;-69